createdAt,value
2018-09-04T00:00:27.733Z,19.20
2018-09-04T00:05:18.639Z,19.20
2018-09-04T00:10:09.680Z,19.10
2018-09-04T00:15:00.569Z,19.10
2018-09-04T00:19:51.480Z,19.00
2018-09-04T00:24:42.450Z,19.00
2018-09-04T00:29:33.365Z,18.80
2018-09-04T00:34:24.375Z,18.80
2018-09-04T00:39:15.236Z,18.80
2018-09-04T00:44:06.901Z,18.70
2018-09-04T00:48:57.846Z,18.70
2018-09-04T00:53:48.788Z,18.60
2018-09-04T00:58:39.721Z,18.60
2018-09-04T01:03:31.449Z,18.40
2018-09-04T01:08:22.388Z,18.40
2018-09-04T01:13:13.318Z,18.40
2018-09-04T01:18:04.229Z,18.30
2018-09-04T01:22:55.919Z,18.20
2018-09-04T01:27:47.582Z,18.10
2018-09-04T01:32:39.247Z,18.00
2018-09-04T01:37:30.162Z,18.00
2018-09-04T01:42:21.162Z,17.90
2018-09-04T01:47:12.059Z,17.90
2018-09-04T01:52:03.726Z,17.80
2018-09-04T01:56:54.656Z,17.70
2018-09-04T02:01:45.583Z,17.70
2018-09-04T02:06:37.230Z,17.60
2018-09-04T02:11:28.567Z,17.60
2018-09-04T02:16:19.560Z,17.50
2018-09-04T02:21:10.564Z,17.60
2018-09-04T02:26:01.483Z,17.50
2018-09-04T02:30:53.117Z,17.40
2018-09-04T02:35:44.043Z,17.40
2018-09-04T02:40:34.982Z,17.30
2018-09-04T02:45:26.522Z,17.30
2018-09-04T02:50:18.181Z,17.20
2018-09-04T02:55:09.667Z,17.20
2018-09-04T03:00:00.625Z,17.20
2018-09-04T03:04:51.558Z,17.10
2018-09-04T03:09:43.226Z,17.00
2018-09-04T03:19:52.112Z,16.90
2018-09-04T03:24:43.761Z,16.90
2018-09-04T03:29:34.706Z,16.90
2018-09-04T03:34:26.243Z,16.80
2018-09-04T03:39:17.892Z,16.80
2018-09-04T03:44:08.851Z,16.70
2018-09-04T03:49:01.085Z,16.70
2018-09-04T03:53:52.735Z,16.70
2018-09-04T03:58:43.689Z,16.60
2018-09-04T04:03:34.603Z,16.60
2018-09-04T04:08:25.523Z,16.60
2018-09-04T04:13:16.424Z,16.60
2018-09-04T04:18:09.780Z,16.50
2018-09-04T04:23:00.749Z,16.50
2018-09-04T04:27:52.416Z,16.40
2018-09-04T04:32:43.369Z,16.40
2018-09-04T04:37:35.763Z,16.40
2018-09-04T04:42:26.698Z,16.40
2018-09-04T04:47:17.615Z,16.40
2018-09-04T04:52:08.570Z,16.30
2018-09-04T04:56:59.495Z,16.30
2018-09-04T05:01:50.422Z,16.30
2018-09-04T05:06:42.090Z,16.20
2018-09-04T05:11:33.058Z,16.20
2018-09-04T05:16:23.953Z,16.20
2018-09-04T05:21:15.624Z,16.20
2018-09-04T05:26:07.284Z,16.20
2018-09-04T05:30:58.202Z,16.20
2018-09-04T05:35:49.177Z,16.20
2018-09-04T05:40:40.121Z,16.20
2018-09-04T05:45:31.877Z,16.20
2018-09-04T05:50:22.814Z,16.20
2018-09-04T05:55:13.835Z,16.20
2018-09-04T06:00:04.770Z,16.20
2018-09-04T06:04:55.692Z,16.20
2018-09-04T06:09:47.344Z,16.30
2018-09-04T06:14:38.276Z,16.30
2018-09-04T06:19:29.192Z,16.30
2018-09-04T06:24:20.853Z,16.40
2018-09-04T06:29:11.805Z,16.40
2018-09-04T06:34:02.752Z,16.50
2018-09-04T06:38:53.668Z,16.60
2018-09-04T06:43:44.589Z,16.60
2018-09-04T06:48:35.519Z,16.70
2018-09-04T06:53:27.186Z,17.00
2018-09-04T06:58:18.088Z,16.90
2018-09-04T07:03:09.760Z,17.20
2018-09-04T07:08:00.664Z,17.20
2018-09-04T07:12:52.326Z,17.50
2018-09-04T07:17:43.260Z,17.50
2018-09-04T07:22:34.213Z,17.60
2018-09-04T07:27:25.138Z,17.80
2018-09-04T07:32:16.098Z,17.90
2018-09-04T07:37:07.002Z,18.00
2018-09-04T07:41:57.953Z,18.20
2018-09-04T07:46:49.612Z,18.40
2018-09-04T07:51:40.558Z,18.40
2018-09-04T07:56:31.530Z,18.50
2018-09-04T08:01:22.472Z,18.70
2018-09-04T08:06:13.378Z,18.80
2018-09-04T08:11:04.314Z,18.90
2018-09-04T08:15:55.227Z,19.00
2018-09-04T08:20:46.222Z,19.10
2018-09-04T08:25:37.086Z,19.20
2018-09-04T08:30:28.754Z,19.50
2018-09-04T08:35:20.429Z,19.60
2018-09-04T08:40:11.346Z,19.60
2018-09-04T08:45:02.270Z,19.70
2018-09-04T08:49:53.202Z,19.80
2018-09-04T08:54:44.122Z,19.90
2018-09-04T08:59:35.770Z,20.20
2018-09-04T09:04:26.685Z,20.20
2018-09-04T09:09:17.629Z,20.30
2018-09-04T09:14:09.296Z,20.50
2018-09-04T09:19:00.223Z,20.50
2018-09-04T09:23:51.138Z,20.60
2018-09-04T09:28:42.063Z,20.70
2018-09-04T09:33:32.982Z,20.80
2018-09-04T09:38:24.645Z,21.00
2018-09-04T09:43:15.591Z,21.00
2018-09-04T09:48:06.507Z,21.10
2018-09-04T09:52:58.224Z,21.40
2018-09-04T09:57:49.115Z,21.30
2018-09-04T10:02:40.027Z,21.50
2018-09-04T10:07:31.717Z,21.70
2018-09-04T10:12:22.604Z,21.70
2018-09-04T10:17:13.513Z,21.90
2018-09-04T10:22:04.450Z,22.00
2018-09-04T10:26:55.422Z,22.20
2018-09-04T10:31:46.331Z,22.40
2018-09-04T10:36:37.242Z,22.50
2018-09-04T10:41:28.181Z,22.70
2018-09-04T10:46:19.104Z,22.90
2018-09-04T10:51:10.020Z,23.10
2018-09-04T10:56:01.687Z,23.30
2018-09-04T11:00:52.634Z,23.30
2018-09-04T11:05:43.570Z,23.40
2018-09-04T11:10:34.473Z,23.40
2018-09-04T11:15:25.399Z,23.50
2018-09-04T11:20:16.346Z,23.70
2018-09-04T11:25:07.264Z,24.00
2018-09-04T11:29:58.185Z,24.30
2018-09-04T11:34:49.117Z,24.80
2018-09-04T11:39:40.039Z,25.40
2018-09-04T11:44:30.951Z,26.00
2018-09-04T11:49:21.883Z,26.60
2018-09-04T11:54:12.804Z,27.20
2018-09-04T11:59:04.477Z,27.50
2018-09-04T12:03:55.436Z,27.50
2018-09-04T12:08:46.344Z,27.50
2018-09-04T12:13:37.317Z,27.60
2018-09-04T12:18:28.240Z,27.80
2018-09-04T12:23:19.910Z,28.50
2018-09-04T12:28:10.845Z,28.50
2018-09-04T12:33:01.768Z,28.80
2018-09-04T12:37:53.431Z,28.80
2018-09-04T12:42:44.332Z,28.80
2018-09-04T12:47:36.005Z,28.50
2018-09-04T12:52:27.656Z,28.30
2018-09-04T12:57:18.594Z,28.30
2018-09-04T13:02:09.511Z,28.20
2018-09-04T13:07:00.421Z,28.00
2018-09-04T13:11:51.386Z,27.90
2018-09-04T13:16:42.336Z,27.70
2018-09-04T13:21:33.266Z,27.60
2018-09-04T13:26:24.202Z,27.40
2018-09-04T13:31:15.154Z,27.20
2018-09-04T13:36:06.073Z,27.10
2018-09-04T13:40:56.986Z,26.90
2018-09-04T13:45:47.908Z,26.90
2018-09-04T13:50:38.837Z,26.80
2018-09-04T13:55:29.833Z,26.80
2018-09-04T14:00:20.776Z,26.70
2018-09-04T14:05:11.715Z,26.70
2018-09-04T14:10:02.631Z,26.70
2018-09-04T14:14:53.576Z,26.70
2018-09-04T14:19:44.508Z,26.70
2018-09-04T14:24:35.452Z,26.60
2018-09-04T14:30:25.786Z,26.60
2018-09-04T14:34:17.370Z,26.40
2018-09-04T14:39:08.347Z,26.40
2018-09-04T14:44:00.777Z,26.10
2018-09-04T14:48:52.438Z,26.10
2018-09-04T14:53:43.405Z,26.10
2018-09-04T14:58:34.363Z,26.00
2018-09-04T15:03:25.274Z,26.00
2018-09-04T15:08:16.953Z,26.00
2018-09-04T15:13:08.614Z,26.00
2018-09-04T15:17:59.554Z,25.90
2018-09-04T15:22:50.493Z,25.90
2018-09-04T15:27:42.229Z,25.90
2018-09-04T15:32:34.638Z,25.80
2018-09-04T15:37:26.296Z,25.70
2018-09-04T15:42:17.212Z,25.70
2018-09-04T15:47:08.132Z,25.60
2018-09-04T15:51:59.047Z,25.50
2018-09-04T15:56:50.718Z,25.30
2018-09-04T16:01:41.638Z,25.30
2018-09-04T16:06:32.567Z,25.20
2018-09-04T16:11:23.480Z,25.10
2018-09-04T16:16:15.338Z,25.00
2018-09-04T16:21:07.037Z,24.80
2018-09-04T16:25:57.970Z,24.70
2018-09-04T16:30:48.880Z,24.60
2018-09-04T16:35:39.904Z,24.40
2018-09-04T16:40:31.535Z,24.30
2018-09-04T16:45:23.183Z,24.20
2018-09-04T16:50:14.918Z,24.10
2018-09-04T16:55:05.958Z,24.10
2018-09-04T16:59:57.035Z,24.10
2018-09-04T17:04:48.023Z,23.90
2018-09-04T17:09:38.957Z,23.90
2018-09-04T17:14:30.682Z,23.70
2018-09-04T17:19:21.598Z,23.60
2018-09-04T17:24:12.507Z,23.60
2018-09-04T17:29:03.434Z,23.50
2018-09-04T17:33:55.114Z,23.30
2018-09-04T17:38:46.044Z,23.30
2018-09-04T17:43:37.018Z,23.20
2018-09-04T17:48:27.946Z,23.10
2018-09-04T17:53:18.881Z,23.00
2018-09-04T17:58:09.805Z,22.80
2018-09-04T18:03:00.724Z,22.70
2018-09-04T18:07:51.644Z,22.60
2018-09-04T18:12:42.568Z,22.40
2018-09-04T18:17:34.224Z,22.20
2018-09-04T18:22:25.138Z,22.20
2018-09-04T18:27:16.051Z,22.00
2018-09-04T18:32:06.959Z,21.90
2018-09-04T18:36:58.629Z,21.60
2018-09-04T18:41:49.555Z,21.60
2018-09-04T18:46:40.481Z,21.50
2018-09-04T18:51:32.125Z,21.30
2018-09-04T18:56:23.041Z,21.20
2018-09-04T19:01:13.999Z,21.10
2018-09-04T19:06:05.658Z,20.90
2018-09-04T19:10:56.576Z,20.90
2018-09-04T19:15:47.599Z,20.80
2018-09-04T19:20:38.525Z,20.70
2018-09-04T19:25:29.444Z,20.50
2018-09-04T19:30:20.565Z,20.50
2018-09-04T19:35:11.628Z,20.40
2018-09-04T19:40:02.586Z,20.40
2018-09-04T19:44:53.589Z,20.30
2018-09-04T19:49:44.669Z,20.20
2018-09-04T19:54:35.647Z,20.20
2018-09-04T19:59:26.640Z,20.10
2018-09-04T20:04:17.663Z,20.10
2018-09-04T20:09:08.661Z,20.00
2018-09-04T20:13:59.656Z,19.90
2018-09-04T20:18:50.786Z,19.80
2018-09-04T20:23:41.817Z,19.70
2018-09-04T20:28:33.664Z,19.60
2018-09-04T20:33:24.806Z,19.60
2018-09-04T20:38:15.793Z,19.50
2018-09-04T20:43:06.778Z,19.50
2018-09-04T20:47:57.927Z,19.40
2018-09-04T20:52:48.922Z,19.30
2018-09-04T20:57:39.858Z,19.30
2018-09-04T21:02:43.401Z,19.20
2018-09-04T21:07:34.518Z,19.10
2018-09-04T21:12:25.720Z,19.00
2018-09-04T21:17:17.647Z,19.00
2018-09-04T21:22:08.642Z,18.90
2018-09-04T21:26:59.628Z,18.80
2018-09-04T21:31:50.566Z,18.80
2018-09-04T21:36:41.549Z,18.70
2018-09-04T21:41:32.506Z,18.60
2018-09-04T21:46:23.508Z,18.50
2018-09-04T21:51:14.462Z,18.40
2018-09-04T21:56:05.651Z,18.30
2018-09-04T22:00:56.758Z,18.20
2018-09-04T22:05:47.895Z,18.10
2018-09-04T22:10:39.060Z,18.00
2018-09-04T22:15:30.098Z,18.00
2018-09-04T22:20:21.201Z,17.90
2018-09-04T22:25:12.333Z,17.80
2018-09-04T22:30:03.553Z,17.70
2018-09-04T22:34:55.499Z,17.50
2018-09-04T22:39:46.582Z,17.50
2018-09-04T22:44:37.653Z,17.50
2018-09-04T22:49:28.723Z,17.40
2018-09-04T22:54:19.713Z,17.30
2018-09-04T22:59:10.784Z,17.30
2018-09-04T23:04:01.975Z,17.20
2018-09-04T23:08:53.039Z,17.10
2018-09-04T23:13:44.900Z,17.00
2018-09-04T23:18:36.977Z,16.90
2018-09-04T23:23:28.140Z,16.90
2018-09-04T23:28:20.487Z,16.90
2018-09-04T23:33:11.522Z,16.80
2018-09-04T23:38:02.664Z,16.70
2018-09-04T23:42:53.783Z,16.70
2018-09-04T23:47:45.624Z,16.60
2018-09-04T23:52:36.626Z,16.50
2018-09-04T23:57:27.584Z,16.50
